Ardrishaig, United Kingdom
Current Conditions -  °F | °C
As of 11:20 AM on Thursday 27 Nov 2014 (Local Time) from EGPI Reporting Station
Scattered Clouds Scattered Clouds  
Wind Chill:   Ceiling: Unl
Heat Index:   Visibility: 6mi
Dew Point:   Wind: 14mph
Humidity: 76%   Direction: 110°ESE
Pressure: 29.56"   Gusts: NA
Location:  56.02°N, 5.45°W
Report Text: EGPI 271120Z 11012KT 080V150 9999 SCT020 09/05 Q1001
Loading
Personal Weather Stations






























Interactive Weather Map New forecast layout! Learn more

10-Day Weather Forecast

Advertisements
Track Severe Weather on mobile